^^
Saratoga-Weather Station Historical Data
Daily Summary for April 20, 2020 Units:  Metric    English   Both
Daily Weekly Monthly Yearly Custom
  High: Low: Average:
Temperature: 27.4 °C 14.8 °C 20.9 °C
Dew Point: 14.8 °C 11 °C 12.8 °C
Humidity: 79% 43% 61%
Wind Speed: 11.3km/h 0km/h 2.5km/h
Wind Gust: 16.1km/h - -
Wind- - SSW
Pressure: 1020.3 hPa 1017.3 hPa -
Precipitation: 0.0 mm    
Historical Graphs
 
 
Tabular Data for April 20, 2020
Time Temperature Dew Point Pressure Wind Wind Speed Wind Gust Humidity Rainfall Rate (Hourly) solar
00:03 19.8 °C 11.8 °C 1020.0 hPa SW 6.4 km/h 12.9 km/h 60% 0.0 mm 0 W/m2
00:08 19.7 °C 12 °C 1020.0 hPa West 1.4 km/h 6.4 km/h 61% 0.0 mm 0 W/m2
00:13 19.6 °C 11.9 °C 1020.0 hPa West 3.2 km/h 12.9 km/h 61% 0.0 mm 0 W/m2
00:18 19.6 °C 11.9 °C 1020.0 hPa West 1.4 km/h 6.4 km/h 61% 0.0 mm 0 W/m2
00:23 19.5 °C 12 °C 1020.0 hPa West 3.2 km/h 12.9 km/h 62% 0.0 mm 0 W/m2
00:28 19.4 °C 11.9 °C 1020.0 hPa West 3.2 km/h 6.4 km/h 62% 0.0 mm 0 W/m2
00:33 19.3 °C 11.8 °C 1020.0 hPa WNW 1.4 km/h 8 km/h 62% 0.0 mm 0 W/m2
00:38 19.1 °C 11.9 °C 1020.0 hPa Calm   1.6 km/h 63% 0.0 mm 0 W/m2
00:43 18.9 °C 11.9 °C 1020.0 hPa Calm   4.8 km/h 64% 0.0 mm 0 W/m2
00:48 18.7 °C 12 °C 1020.0 hPa West 1.4 km/h 1.6 km/h 65% 0.0 mm 0 W/m2
00:53 18.3 °C 11.8 °C 1020.0 hPa Calm   1.6 km/h 66% 0.0 mm 0 W/m2
00:58 18.1 °C 11.9 °C 1020.0 hPa NNW 1.4 km/h 1.6 km/h 67% 0.0 mm 0 W/m2
01:03 17.8 °C 11.8 °C 1020.0 hPa WSW 3.2 km/h 3.2 km/h 68% 0.0 mm 0 W/m2
01:08 17.6 °C 11.8 °C 1020.0 hPa WNW 1.4 km/h 6.4 km/h 69% 0.0 mm 0 W/m2
01:13 17.6 °C 11.8 °C 1020.0 hPa WNW 1.4 km/h 3.2 km/h 69% 0.0 mm 0 W/m2
01:18 17.5 °C 12 °C 1019.6 hPa WSW 1.4 km/h 6.4 km/h 70% 0.0 mm 0 W/m2
01:23 17.4 °C 11.9 °C 1020.0 hPa Calm   3.2 km/h 70% 0.0 mm 0 W/m2
01:28 17.4 °C 11.9 °C 1019.6 hPa WSW 1.4 km/h 4.8 km/h 70% 0.0 mm 0 W/m2
01:33 17.3 °C 12 °C 1020.0 hPa WSW 1.4 km/h 1.6 km/h 71% 0.0 mm 0 W/m2
01:38 17.2 °C 11.9 °C 1020.0 hPa Calm   1.6 km/h 71% 0.0 mm 0 W/m2
01:43 17.1 °C 11.8 °C 1020.0 hPa WSW 1.4 km/h 3.2 km/h 71% 0.0 mm 0 W/m2
01:48 17.1 °C 11.8 °C 1019.6 hPa NNW 1.4 km/h 3.2 km/h 71% 0.0 mm 0 W/m2
01:54 17.3 °C 11.8 °C 1019.6 hPa NW 3.2 km/h 3.2 km/h 70% 0.0 mm 0 W/m2
01:59 17.4 °C 11.9 °C 1019.6 hPa WNW 1.4 km/h 3.2 km/h 70% 0.0 mm 0 W/m2
02:04 17.4 °C 11.9 °C 1019.6 hPa Calm   3.2 km/h 70% 0.0 mm 0 W/m2
02:09 17.3 °C 12 °C 1019.6 hPa North 1.4 km/h 3.2 km/h 71% 0.0 mm 0 W/m2
02:14 17.1 °C 11.8 °C 1019.6 hPa Calm     71% 0.0 mm 0 W/m2
02:19 16.8 °C 11.7 °C 1019.6 hPa Calm   1.6 km/h 72% 0.0 mm 0 W/m2
02:24 16.6 °C 11.7 °C 1019.6 hPa Calm   1.6 km/h 73% 0.0 mm 0 W/m2
02:29 16.4 °C 11.8 °C 1019.6 hPa Calm   1.6 km/h 74% 0.0 mm 0 W/m2
02:34 16.2 °C 11.8 °C 1019.6 hPa Calm   3.2 km/h 75% 0.0 mm 0 W/m2
02:39 16 °C 11.6 °C 1019.6 hPa Calm     75% 0.0 mm 0 W/m2
02:44 15.9 °C 11.7 °C 1019.6 hPa Calm   3.2 km/h 76% 0.0 mm 0 W/m2
02:49 15.8 °C 11.8 °C 1019.6 hPa Calm     77% 0.0 mm 0 W/m2
02:54 15.7 °C 11.7 °C 1019.6 hPa North 1.4 km/h 1.6 km/h 77% 0.0 mm 0 W/m2
02:59 15.6 °C 11.6 °C 1019.6 hPa Calm     77% 0.0 mm 0 W/m2
03:04 15.6 °C 11.6 °C 1019.6 hPa Calm   1.6 km/h 77% 0.0 mm 0 W/m2
03:09 15.4 °C 11.6 °C 1019.6 hPa Calm   1.6 km/h 78% 0.0 mm 0 W/m2
03:14 15.6 °C 11.6 °C 1019.6 hPa SW 1.4 km/h 3.2 km/h 77% 0.0 mm 0 W/m2
03:19 15.6 °C 11.6 °C 1019.6 hPa Calm     77% 0.0 mm 0 W/m2
03:24 15.5 °C 11.5 °C 1019.6 hPa Calm   1.6 km/h 77% 0.0 mm 0 W/m2
03:29 15.4 °C 11.4 °C 1019.6 hPa SSW 1.4 km/h 1.6 km/h 77% 0.0 mm 0 W/m2
03:34 15.3 °C 11.5 °C 1019.6 hPa Calm   1.6 km/h 78% 0.0 mm 0 W/m2
03:39 15.4 °C 11.4 °C 1019.6 hPa Calm   3.2 km/h 77% 0.0 mm 0 W/m2
03:44 15.6 °C 11.6 °C 1019.6 hPa Calm   1.6 km/h 77% 0.0 mm 0 W/m2
03:49 15.7 °C 11.5 °C 1019.6 hPa NNE 1.4 km/h 4.8 km/h 76% 0.0 mm 0 W/m2
03:54 15.7 °C 11.5 °C 1019.6 hPa Calm   4.8 km/h 76% 0.0 mm 0 W/m2
03:59 15.7 °C 11.5 °C 1019.6 hPa Calm   1.6 km/h 76% 0.0 mm 0 W/m2
04:04 15.7 °C 11.5 °C 1019.6 hPa SSW 3.2 km/h 3.2 km/h 76% 0.0 mm 0 W/m2
04:09 15.6 °C 11.4 °C 1019.6 hPa Calm     76% 0.0 mm 0 W/m2
04:14 15.5 °C 11.3 °C 1019.6 hPa SSW 1.4 km/h 1.6 km/h 76% 0.0 mm 0 W/m2
04:19 15.4 °C 11.4 °C 1019.6 hPa SSW 1.4 km/h 1.6 km/h 77% 0.0 mm 0 W/m2
04:24 15.4 °C 11.4 °C 1019.6 hPa Calm     77% 0.0 mm 0 W/m2
04:29 15.3 °C 11.3 °C 1019.6 hPa SSW 3.2 km/h 3.2 km/h 77% 0.0 mm 0 W/m2
04:34 15.3 °C 11.3 °C 1019.6 hPa SSW 1.4 km/h 3.2 km/h 77% 0.0 mm 0 W/m2
04:39 15.3 °C 11.3 °C 1019.6 hPa SE 1.4 km/h 1.6 km/h 77% 0.0 mm 0 W/m2
04:44 15.4 °C 11.2 °C 1019.6 hPa SSE 1.4 km/h 1.6 km/h 76% 0.0 mm 0 W/m2
04:49 15.5 °C 11.3 °C 1019.6 hPa Calm   1.6 km/h 76% 0.0 mm 0 W/m2
04:54 15.4 °C 11.2 °C 1019.6 hPa SSE 1.4 km/h 4.8 km/h 76% 0.0 mm 0 W/m2
04:59 15.3 °C 11.3 °C 1019.6 hPa SSE 1.4 km/h 3.2 km/h 77% 0.0 mm 0 W/m2
05:04 15.1 °C 11.3 °C 1019.6 hPa SSE 1.4 km/h 3.2 km/h 78% 0.0 mm 0 W/m2
05:09 15 °C 11.2 °C 1019.6 hPa SSE 1.4 km/h 3.2 km/h 78% 0.0 mm 0 W/m2
05:14 14.9 °C 11.1 °C 1019.6 hPa SSE 1.4 km/h 3.2 km/h 78% 0.0 mm 0 W/m2
05:19 14.8 °C 11.2 °C 1019.6 hPa Calm   1.6 km/h 79% 0.0 mm 0 W/m2
05:24 14.8 °C 11.2 °C 1019.6 hPa SW 1.4 km/h 4.8 km/h 79% 0.0 mm 0 W/m2
05:29 14.8 °C 11.2 °C 1019.6 hPa NW 1.4 km/h 3.2 km/h 79% 0.0 mm 0 W/m2
05:34 14.9 °C 11.1 °C 1019.6 hPa Calm     78% 0.0 mm 0 W/m2
05:39 15 °C 11.2 °C 1019.6 hPa Calm   1.6 km/h 78% 0.0 mm 0 W/m2
05:44 15.1 °C 11.1 °C 1019.6 hPa SW 1.4 km/h 3.2 km/h 77% 0.0 mm 0 W/m2
05:49 15 °C 11 °C 1019.6 hPa Calm     77% 0.0 mm 5 W/m2
05:54 15 °C 11 °C 1019.6 hPa WNW 4.7 km/h 4.8 km/h 77% 0.0 mm 7 W/m2
05:59 15.2 °C 11.2 °C 1019.6 hPa WSW 1.4 km/h 1.6 km/h 77% 0.0 mm 9 W/m2
06:04 15.2 °C 11 °C 1019.6 hPa Calm   3.2 km/h 76% 0.0 mm 12 W/m2
06:09 15.2 °C 11 °C 1019.6 hPa West 1.4 km/h 4.8 km/h 76% 0.0 mm 14 W/m2
06:14 15.3 °C 11.1 °C 1019.6 hPa NW 3.2 km/h 4.8 km/h 76% 0.0 mm 18 W/m2
06:19 15.4 °C 11 °C 1019.6 hPa West 3.2 km/h 4.8 km/h 75% 0.0 mm 19 W/m2
06:24 15.5 °C 11.1 °C 1019.6 hPa NNW 4.7 km/h 4.8 km/h 75% 0.0 mm 23 W/m2
06:29 15.6 °C 11.2 °C 1019.6 hPa NW 3.2 km/h 3.2 km/h 75% 0.0 mm 25 W/m2
06:34 15.6 °C 11.2 °C 1019.6 hPa Calm   3.2 km/h 75% 0.0 mm 26 W/m2
06:39 15.6 °C 11.2 °C 1019.6 hPa WNW 1.4 km/h 3.2 km/h 75% 0.0 mm 28 W/m2
06:44 15.6 °C 11.2 °C 1019.6 hPa Calm   6.4 km/h 75% 0.0 mm 32 W/m2
06:49 15.7 °C 11.3 °C 1019.6 hPa WNW 1.4 km/h 4.8 km/h 75% 0.0 mm 33 W/m2
06:54 15.7 °C 11.3 °C 1019.6 hPa WNW 1.4 km/h 3.2 km/h 75% 0.0 mm 35 W/m2
06:59 15.7 °C 11.3 °C 1020.0 hPa WNW 1.4 km/h 1.6 km/h 75% 0.0 mm 37 W/m2
07:04 15.8 °C 11.4 °C 1020.0 hPa Calm   4.8 km/h 75% 0.0 mm 39 W/m2
07:09 15.8 °C 11.4 °C 1020.0 hPa WNW 4.7 km/h 4.8 km/h 75% 0.0 mm 40 W/m2
07:14 15.8 °C 11.4 °C 1020.0 hPa SW 1.4 km/h 4.8 km/h 75% 0.0 mm 42 W/m2
07:19 15.9 °C 11.3 °C 1020.0 hPa WNW 1.4 km/h 1.6 km/h 74% 0.0 mm 44 W/m2
07:24 15.9 °C 11.3 °C 1020.0 hPa ENE 3.2 km/h 3.2 km/h 74% 0.0 mm 46 W/m2
07:29 16 °C 11.4 °C 1020.0 hPa Calm   4.8 km/h 74% 0.0 mm 47 W/m2
07:34 16.1 °C 11.5 °C 1020.0 hPa Calm     74% 0.0 mm 49 W/m2
07:39 16.2 °C 11.6 °C 1020.0 hPa NNW 1.4 km/h 1.6 km/h 74% 0.0 mm 51 W/m2
07:44 16.2 °C 11.6 °C 1020.0 hPa West 1.4 km/h 6.4 km/h 74% 0.0 mm 95 W/m2
07:49 16.4 °C 11.8 °C 1020.0 hPa NW 3.2 km/h 6.4 km/h 74% 0.0 mm 237 W/m2
07:54 16.6 °C 11.9 °C 1020.0 hPa Calm   1.6 km/h 74% 0.0 mm 253 W/m2
07:59 16.9 °C 11.8 °C 1020.0 hPa Calm   4.8 km/h 72% 0.0 mm 264 W/m2
08:04 17.2 °C 12.1 °C 1020.0 hPa NW 3.2 km/h 6.4 km/h 72% 0.0 mm 278 W/m2
08:09 17.4 °C 12.1 °C 1020.0 hPa North 1.4 km/h 3.2 km/h 71% 0.0 mm 288 W/m2
08:14 17.5 °C 12 °C 1020.0 hPa NE 1.4 km/h 4.8 km/h 70% 0.0 mm 306 W/m2
08:19 17.6 °C 12.1 °C 1020.0 hPa NE 1.4 km/h 3.2 km/h 70% 0.0 mm 320 W/m2
08:24 17.8 °C 12.3 °C 1020.0 hPa East 1.4 km/h 3.2 km/h 70% 0.0 mm 336 W/m2
08:29 17.9 °C 12.4 °C 1020.0 hPa NW 1.4 km/h 3.2 km/h 70% 0.0 mm 346 W/m2
08:34 18 °C 12.2 °C 1020.0 hPa NNW 1.4 km/h 3.2 km/h 69% 0.0 mm 360 W/m2
08:39 18.1 °C 12.3 °C 1020.0 hPa NW 3.2 km/h 4.8 km/h 69% 0.0 mm 371 W/m2
08:44 18.2 °C 12.4 °C 1020.0 hPa ENE 3.2 km/h 4.8 km/h 69% 0.0 mm 385 W/m2
08:49 18.3 °C 12.5 °C 1020.0 hPa NNE 1.4 km/h 1.6 km/h 69% 0.0 mm 397 W/m2
08:54 18.5 °C 12.7 °C 1020.0 hPa NNE 1.4 km/h 4.8 km/h 69% 0.0 mm 408 W/m2
08:59 18.5 °C 12.5 °C 1020.0 hPa WNW 1.4 km/h 4.8 km/h 68% 0.0 mm 422 W/m2
09:04 18.4 °C 12.6 °C 1020.0 hPa NW 1.4 km/h 6.4 km/h 69% 0.0 mm 434 W/m2
09:09 18.6 °C 12.8 °C 1020.0 hPa Calm   8 km/h 69% 0.0 mm 446 W/m2
09:14 18.9 °C 12.9 °C 1020.0 hPa North 3.2 km/h 6.4 km/h 68% 0.0 mm 464 W/m2
09:19 19.2 °C 12.9 °C 1020.0 hPa West 3.2 km/h 8 km/h 67% 0.0 mm 471 W/m2
09:24 19.2 °C 12.9 °C 1020.0 hPa West 3.2 km/h 6.4 km/h 67% 0.0 mm 482 W/m2
09:30 19.3 °C 13 °C 1020.0 hPa NW 4.7 km/h 8 km/h 67% 0.0 mm 496 W/m2
09:35 19.2 °C 12.7 °C 1020.0 hPa NW 7.9 km/h 11.3 km/h 66% 0.0 mm 508 W/m2
09:40 19.4 °C 13.1 °C 1020.0 hPa North 7.9 km/h 12.9 km/h 67% 0.0 mm 520 W/m2
09:45 19.6 °C 13.3 °C 1020.0 hPa North 7.9 km/h 8 km/h 67% 0.0 mm 526 W/m2
09:50 19.6 °C 13.1 °C 1020.0 hPa WNW 3.2 km/h 9.7 km/h 66% 0.0 mm 536 W/m2
09:55 19.7 °C 13.4 °C 1020.0 hPa WNW 9.7 km/h 9.7 km/h 67% 0.0 mm 545 W/m2
10:00 19.8 °C 13.3 °C 1020.0 hPa East 1.4 km/h 6.4 km/h 66% 0.0 mm 555 W/m2
10:05 20 °C 13.5 °C 1020.0 hPa NNW 4.7 km/h 6.4 km/h 66% 0.0 mm 571 W/m2
10:10 20.2 °C 13.4 °C 1020.0 hPa NW 6.4 km/h 11.3 km/h 65% 0.0 mm 587 W/m2
10:15 20.3 °C 13.3 °C 1020.3 hPa ENE 6.4 km/h 6.4 km/h 64% 0.0 mm 496 W/m2
10:20 20.5 °C 13.5 °C 1020.3 hPa ENE 3.2 km/h 4.8 km/h 64% 0.0 mm 79 W/m2
10:25 20.6 °C 13.3 °C 1020.3 hPa SE 3.2 km/h 6.4 km/h 63% 0.0 mm 608 W/m2
10:30 20.6 °C 13.3 °C 1020.3 hPa East 6.4 km/h 11.3 km/h 63% 0.0 mm 622 W/m2
10:35 20.9 °C 13.6 °C 1020.3 hPa ENE 3.2 km/h 4.8 km/h 63% 0.0 mm 631 W/m2
10:40 21.1 °C 13.3 °C 1020.3 hPa East 11.1 km/h 12.9 km/h 61% 0.0 mm 652 W/m2
10:45 21.3 °C 13.2 °C 1020.3 hPa WSW 1.4 km/h 9.7 km/h 60% 0.0 mm 654 W/m2
10:50 21.4 °C 13.3 °C 1020.3 hPa NE 1.4 km/h 11.3 km/h 60% 0.0 mm 663 W/m2
10:55 21.4 °C 13.6 °C 1020.0 hPa NW 3.2 km/h 4.8 km/h 61% 0.0 mm 673 W/m2
11:00 21.3 °C 13.5 °C 1020.0 hPa West 1.4 km/h 6.4 km/h 61% 0.0 mm 679 W/m2
11:05 21.4 °C 13.6 °C 1020.0 hPa ENE 3.2 km/h 4.8 km/h 61% 0.0 mm 691 W/m2
11:10 21.7 °C 13.3 °C 1020.0 hPa NW 3.2 km/h 6.4 km/h 59% 0.0 mm 710 W/m2
11:15 21.7 °C 13.6 °C 1020.0 hPa ESE 1.4 km/h 6.4 km/h 60% 0.0 mm 719 W/m2
11:20 22 °C 13.9 °C 1020.0 hPa ESE 6.4 km/h 6.4 km/h 60% 0.0 mm 715 W/m2
11:25 22.2 °C 14.3 °C 1020.0 hPa ESE 6.4 km/h 6.4 km/h 61% 0.0 mm 724 W/m2
11:30 22.4 °C 13.7 °C 1020.0 hPa ESE 1.4 km/h 8 km/h 58% 0.0 mm 712 W/m2
11:35 22.5 °C 14.1 °C 1020.0 hPa South 1.4 km/h 3.2 km/h 59% 0.0 mm 740 W/m2
11:41 22.6 °C 13.9 °C 1019.6 hPa NE 1.4 km/h 6.4 km/h 58% 0.0 mm 742 W/m2
11:46 22.7 °C 14.8 °C 1019.6 hPa NW 1.4 km/h 4.8 km/h 61% 0.0 mm 742 W/m2
11:51 22.9 °C 13.9 °C 1019.6 hPa WNW 3.2 km/h 4.8 km/h 57% 0.0 mm 765 W/m2
11:56 23 °C 13.7 °C 1019.6 hPa ENE 3.2 km/h 3.2 km/h 56% 0.0 mm 763 W/m2
12:01 23.2 °C 13.9 °C 1019.6 hPa East 4.7 km/h 12.9 km/h 56% 0.0 mm 775 W/m2
12:06 23.2 °C 14.2 °C 1019.6 hPa NE 3.2 km/h 8 km/h 57% 0.0 mm 795 W/m2
12:11 23.4 °C 13.8 °C 1019.6 hPa ESE 3.2 km/h 8 km/h 55% 0.0 mm 793 W/m2
12:16 23.4 °C 14.1 °C 1019.6 hPa WNW 3.2 km/h 6.4 km/h 56% 0.0 mm 793 W/m2
12:21 23.4 °C 14.1 °C 1019.6 hPa WNW 3.2 km/h 4.8 km/h 56% 0.0 mm 793 W/m2
12:26 23.4 °C 14.7 °C 1019.3 hPa WNW 1.4 km/h 4.8 km/h 58% 0.0 mm 847 W/m2
12:31 23.6 °C 13.7 °C 1019.3 hPa South 6.4 km/h 6.4 km/h 54% 0.0 mm 831 W/m2
12:36 23.6 °C 14.3 °C 1019.3 hPa WSW 4.7 km/h 4.8 km/h 56% 0.0 mm 749 W/m2
12:41 23.5 °C 13.7 °C 1019.3 hPa West 4.7 km/h 4.8 km/h 54% 0.0 mm 837 W/m2
12:46 23.7 °C 13.8 °C 1019.3 hPa WNW 1.4 km/h 3.2 km/h 54% 0.0 mm 798 W/m2
12:51 23.8 °C 13.6 °C 1019.3 hPa North 1.4 km/h 6.4 km/h 53% 0.0 mm 875 W/m2
12:56 23.8 °C 13.6 °C 1019.3 hPa WNW 1.4 km/h 6.4 km/h 53% 0.0 mm 888 W/m2
13:01 23.8 °C 13.1 °C 1019.3 hPa NNW 9.7 km/h 9.7 km/h 51% 0.0 mm 142 W/m2
13:06 23.8 °C 13.4 °C 1019.3 hPa West 1.4 km/h 8 km/h 52% 0.0 mm 861 W/m2
13:11 23.7 °C 13.8 °C 1019.3 hPa West 1.4 km/h 3.2 km/h 54% 0.0 mm 847 W/m2
13:16 24.1 °C 13.9 °C 1019.3 hPa ENE 4.7 km/h 14.5 km/h 53% 0.0 mm 835 W/m2
13:21 24.2 °C 13.7 °C 1019.0 hPa East 4.7 km/h 4.8 km/h 52% 0.0 mm 835 W/m2
13:26 24.2 °C 14 °C 1019.0 hPa Calm   8 km/h 53% 0.0 mm 863 W/m2
13:31 24.4 °C 13.3 °C 1019.0 hPa East 4.7 km/h 6.4 km/h 50% 0.0 mm 870 W/m2
13:36 24.5 °C 14 °C 1019.0 hPa SSE 3.2 km/h 4.8 km/h 52% 0.0 mm 840 W/m2
13:41 24.5 °C 14.3 °C 1019.0 hPa SE 4.7 km/h 6.4 km/h 53% 0.0 mm 884 W/m2
13:46 24.7 °C 13.3 °C 1019.0 hPa NE 1.4 km/h 6.4 km/h 49% 0.0 mm 865 W/m2
13:51 24.8 °C 13.4 °C 1019.0 hPa WNW 11.3 km/h 11.3 km/h 49% 0.0 mm 909 W/m2
13:56 24.5 °C 13.1 °C 1019.0 hPa NW 1.4 km/h 4.8 km/h 49% 0.0 mm 863 W/m2
14:02 24.3 °C 13.5 °C 1019.0 hPa SSW 4.7 km/h 16.1 km/h 51% 0.0 mm 151 W/m2
14:07 24.3 °C 13.8 °C 1019.0 hPa ENE 9.7 km/h 14.5 km/h 52% 0.0 mm 879 W/m2
14:12 24.4 °C 13.3 °C 1019.0 hPa East 4.7 km/h 11.3 km/h 50% 0.0 mm 854 W/m2
14:17 24.6 °C 14.1 °C 1019.0 hPa ENE 3.2 km/h 11.3 km/h 52% 0.0 mm 874 W/m2
14:22 24.8 °C 14.6 °C 1019.0 hPa East 4.7 km/h 6.4 km/h 53% 0.0 mm 865 W/m2
14:27 25.2 °C 14.3 °C 1019.0 hPa NE 6.4 km/h 6.4 km/h 51% 0.0 mm 868 W/m2
14:32 25.4 °C 13.6 °C 1019.0 hPa NW 3.2 km/h 4.8 km/h 48% 0.0 mm 877 W/m2
14:37 25.6 °C 13.8 °C 1019.0 hPa WNW 7.9 km/h 12.9 km/h 48% 0.0 mm 958 W/m2
14:42 25.6 °C 14.1 °C 1018.6 hPa SW 4.7 km/h 6.4 km/h 49% 0.0 mm 914 W/m2
14:47 25.5 °C 13.7 °C 1018.6 hPa West 1.4 km/h 12.9 km/h 48% 0.0 mm 178 W/m2
14:52 25.3 °C 13.8 °C 1018.6 hPa ENE 7.9 km/h 8 km/h 49% 0.0 mm 265 W/m2
14:57 25.3 °C 13.8 °C 1018.6 hPa East 3.2 km/h 11.3 km/h 49% 0.0 mm 188 W/m2
15:02 25.2 °C 13.7 °C 1018.6 hPa NE 4.7 km/h 6.4 km/h 49% 0.0 mm 220 W/m2
15:07 25.2 °C 13.7 °C 1018.6 hPa SE 1.4 km/h 4.8 km/h 49% 0.0 mm 183 W/m2
15:12 25.3 °C 13.5 °C 1018.6 hPa NW 3.2 km/h 9.7 km/h 48% 0.0 mm 902 W/m2
15:17 25.1 °C 13.6 °C 1018.6 hPa ENE 3.2 km/h 4.8 km/h 49% 0.0 mm 169 W/m2
15:22 24.9 °C 13.1 °C 1018.6 hPa NNE 1.4 km/h 9.7 km/h 48% 0.0 mm 146 W/m2
15:27 24.8 °C 13.4 °C 1018.3 hPa NW 1.4 km/h 4.8 km/h 49% 0.0 mm 171 W/m2
15:32 24.9 °C 13.8 °C 1018.3 hPa WNW 1.4 km/h 4.8 km/h 50% 0.0 mm 812 W/m2
15:37 25.3 °C 14.1 °C 1018.3 hPa East 6.4 km/h 11.3 km/h 50% 0.0 mm 819 W/m2
15:42 25.4 °C 13.6 °C 1018.3 hPa NW 3.2 km/h 4.8 km/h 48% 0.0 mm 211 W/m2
15:47 25.3 °C 13.5 °C 1018.3 hPa North 9.7 km/h 14.5 km/h 48% 0.0 mm 469 W/m2
15:52 25.1 °C 13.6 °C 1018.3 hPa ENE 3.2 km/h 6.4 km/h 49% 0.0 mm 158 W/m2
15:57 24.8 °C 13.4 °C 1018.3 hPa North 1.4 km/h 4.8 km/h 49% 0.0 mm 139 W/m2
16:02 24.9 °C 13.5 °C 1018.3 hPa NW 3.2 km/h 4.8 km/h 49% 0.0 mm 745 W/m2
16:07 25.3 °C 13.5 °C 1018.3 hPa Calm   3.2 km/h 48% 0.0 mm 744 W/m2
16:12 25.7 °C 13.5 °C 1018.0 hPa WNW 1.4 km/h 8 km/h 47% 0.0 mm 747 W/m2
16:17 25.9 °C 14 °C 1018.0 hPa SW 3.2 km/h 3.2 km/h 48% 0.0 mm 707 W/m2
16:22 26.3 °C 13.8 °C 1018.0 hPa ESE 9.7 km/h 11.3 km/h 46% 0.0 mm 696 W/m2
16:27 26.1 °C 13.6 °C 1018.0 hPa East 9.7 km/h 12.9 km/h 46% 0.0 mm 160 W/m2
16:33 25.9 °C 13.7 °C 1018.0 hPa ENE 1.4 km/h 8 km/h 47% 0.0 mm 251 W/m2
16:38 25.8 °C 13.6 °C 1018.0 hPa West 9.7 km/h 9.7 km/h 47% 0.0 mm 670 W/m2
16:43 26 °C 13.1 °C 1018.0 hPa WNW 3.2 km/h 8 km/h 45% 0.0 mm 615 W/m2
16:48 26.1 °C 13.6 °C 1018.0 hPa West 4.7 km/h 6.4 km/h 46% 0.0 mm 652 W/m2
16:53 26.2 °C 14 °C 1018.0 hPa East 4.7 km/h 11.3 km/h 47% 0.0 mm 612 W/m2
16:58 26.3 °C 13.1 °C 1018.0 hPa West 1.4 km/h 3.2 km/h 44% 0.0 mm 589 W/m2
17:03 26.6 °C 14 °C 1018.0 hPa NNW 3.2 km/h 4.8 km/h 46% 0.0 mm 578 W/m2
17:08 26.9 °C 13.3 °C 1018.0 hPa WNW 4.7 km/h 6.4 km/h 43% 0.0 mm 578 W/m2
17:13 26.8 °C 13.2 °C 1018.0 hPa NNW 4.7 km/h 9.7 km/h 43% 0.0 mm 589 W/m2
17:18 26.8 °C 13.9 °C 1018.0 hPa SSE 3.2 km/h 4.8 km/h 45% 0.0 mm 626 W/m2
17:23 26.7 °C 13.4 °C 1018.0 hPa WSW 4.7 km/h 8 km/h 44% 0.0 mm 610 W/m2
17:28 26.8 °C 13.9 °C 1018.0 hPa NE 3.2 km/h 9.7 km/h 45% 0.0 mm 610 W/m2
17:33 26.9 °C 13.6 °C 1018.0 hPa SE 4.7 km/h 6.4 km/h 44% 0.0 mm 578 W/m2
17:38 26.9 °C 13.6 °C 1017.6 hPa ESE 3.2 km/h 4.8 km/h 44% 0.0 mm 589 W/m2
17:43 27.1 °C 13.4 °C 1017.6 hPa West 3.2 km/h 12.9 km/h 43% 0.0 mm 578 W/m2
17:48 27.2 °C 13.5 °C 1017.6 hPa East 1.4 km/h 3.2 km/h 43% 0.0 mm 564 W/m2
17:53 27.3 °C 14.3 °C 1017.6 hPa ESE 4.7 km/h 12.9 km/h 45% 0.0 mm 522 W/m2
17:58 27.4 °C 13.7 °C 1017.6 hPa ESE 3.2 km/h 6.4 km/h 43% 0.0 mm 503 W/m2
18:03 27.2 °C 13.5 °C 1017.6 hPa ENE 7.9 km/h 8 km/h 43% 0.0 mm 443 W/m2
18:08 26.8 °C 13.2 °C 1017.6 hPa East 1.4 km/h 6.4 km/h 43% 0.0 mm 204 W/m2
18:13 26.6 °C 13 °C 1017.6 hPa SSW 3.2 km/h 3.2 km/h 43% 0.0 mm 79 W/m2
18:18 26.1 °C 13.2 °C 1017.6 hPa Calm   1.6 km/h 45% 0.0 mm 77 W/m2
18:23 25.7 °C 13.2 °C 1017.6 hPa ESE 3.2 km/h 3.2 km/h 46% 0.0 mm 378 W/m2
18:29 25.7 °C 12.9 °C 1017.6 hPa NNW 6.4 km/h 8 km/h 45% 0.0 mm 362 W/m2
18:34 25.8 °C 13 °C 1017.6 hPa WSW 3.2 km/h 3.2 km/h 45% 0.0 mm 65 W/m2
18:39 25.8 °C 13 °C 1017.6 hPa NW 1.4 km/h 8 km/h 45% 0.0 mm 338 W/m2
18:44 26.1 °C 13.2 °C 1017.6 hPa NNE 1.4 km/h 1.6 km/h 45% 0.0 mm 313 W/m2
18:49 26.2 °C 13.7 °C 1017.6 hPa North 3.2 km/h 8 km/h 46% 0.0 mm 295 W/m2
18:54 26.4 °C 13.8 °C 1017.6 hPa East 3.2 km/h 9.7 km/h 46% 0.0 mm 283 W/m2
18:59 26.3 °C 13.4 °C 1017.6 hPa East 7.9 km/h 9.7 km/h 45% 0.0 mm 262 W/m2
19:04 26.1 °C 13.2 °C 1017.6 hPa East 9.7 km/h 12.9 km/h 45% 0.0 mm 257 W/m2
19:09 26 °C 12.8 °C 1017.3 hPa NNW 3.2 km/h 4.8 km/h 44% 0.0 mm 246 W/m2
19:14 26 °C 13.1 °C 1017.3 hPa SE 1.4 km/h 12.9 km/h 45% 0.0 mm 237 W/m2
19:19 25.9 °C 13.1 °C 1017.3 hPa NNE 1.4 km/h 1.6 km/h 45% 0.0 mm 227 W/m2
19:24 26.2 °C 13.3 °C 1017.3 hPa Calm   6.4 km/h 45% 0.0 mm 214 W/m2
19:29 26.4 °C 13.2 °C 1017.3 hPa Calm   4.8 km/h 44% 0.0 mm 206 W/m2
19:34 26.6 °C 13.3 °C 1017.3 hPa East 1.4 km/h 3.2 km/h 44% 0.0 mm 199 W/m2
19:39 26.7 °C 13.4 °C 1017.3 hPa Calm   1.6 km/h 44% 0.0 mm 190 W/m2
19:44 26.8 °C 13.2 °C 1017.6 hPa Calm   3.2 km/h 43% 0.0 mm 185 W/m2
19:49 26.8 °C 13.2 °C 1017.6 hPa Calm   1.6 km/h 43% 0.0 mm 176 W/m2
19:54 26.7 °C 13.4 °C 1017.6 hPa ESE 1.4 km/h 6.4 km/h 44% 0.0 mm 142 W/m2
19:59 26.4 °C 13.5 °C 1017.6 hPa Calm   3.2 km/h 45% 0.0 mm 125 W/m2
20:04 26.3 °C 13.8 °C 1017.6 hPa Calm   1.6 km/h 46% 0.0 mm 93 W/m2
20:09 26.2 °C 14.3 °C 1017.6 hPa Calm   1.6 km/h 48% 0.0 mm 84 W/m2
20:14 26 °C 13.1 °C 1017.6 hPa NE 1.4 km/h 3.2 km/h 45% 0.0 mm 76 W/m2
20:19 25.6 °C 12.8 °C 1017.6 hPa East 1.4 km/h 6.4 km/h 45% 0.0 mm 69 W/m2
20:24 25.3 °C 13.8 °C 1017.6 hPa Calm     49% 0.0 mm 39 W/m2
20:29 24.8 °C 12.7 °C 1017.6 hPa SE 1.4 km/h 6.4 km/h 47% 0.0 mm 35 W/m2
20:34 24.6 °C 13.8 °C 1017.6 hPa SE 1.4 km/h 1.6 km/h 51% 0.0 mm 35 W/m2
20:39 24.1 °C 13.3 °C 1017.6 hPa East 1.4 km/h 3.2 km/h 51% 0.0 mm 28 W/m2
20:44 23.8 °C 12.8 °C 1017.6 hPa NE 1.4 km/h 3.2 km/h 50% 0.0 mm 26 W/m2
20:49 23.7 °C 13 °C 1018.0 hPa ENE 3.2 km/h 4.8 km/h 51% 0.0 mm 25 W/m2
20:54 23.7 °C 13 °C 1018.0 hPa NE 1.4 km/h 6.4 km/h 51% 0.0 mm 23 W/m2
20:59 23.7 °C 13.3 °C 1018.0 hPa Calm   4.8 km/h 52% 0.0 mm 19 W/m2
21:04 23.7 °C 13.3 °C 1018.0 hPa WNW 6.4 km/h 9.7 km/h 52% 0.0 mm 14 W/m2
21:09 23.6 °C 13.5 °C 1018.3 hPa Calm   4.8 km/h 53% 0.0 mm 12 W/m2
21:14 23.5 °C 13.7 °C 1018.3 hPa Calm   9.7 km/h 54% 0.0 mm 9 W/m2
21:19 23.3 °C 14 °C 1018.3 hPa NE 3.2 km/h 6.4 km/h 56% 0.0 mm 7 W/m2
21:24 23.1 °C 14.1 °C 1018.3 hPa NNW 1.4 km/h 3.2 km/h 57% 0.0 mm 0 W/m2
21:29 22.9 °C 13.9 °C 1018.3 hPa NE 4.7 km/h 6.4 km/h 57% 0.0 mm 0 W/m2
21:34 22.8 °C 14.1 °C 1018.3 hPa NW 3.2 km/h 3.2 km/h 58% 0.0 mm 0 W/m2
21:39 22.6 °C 13.9 °C 1018.6 hPa SE 3.2 km/h 3.2 km/h 58% 0.0 mm 0 W/m2
21:44 22.5 °C 14.1 °C 1018.6 hPa NNW 1.4 km/h 4.8 km/h 59% 0.0 mm 0 W/m2
21:49 22.3 °C 13.9 °C 1018.6 hPa ENE 1.4 km/h 4.8 km/h 59% 0.0 mm 0 W/m2
21:54 22.2 °C 13.8 °C 1018.6 hPa Calm   1.6 km/h 59% 0.0 mm 0 W/m2
21:59 22.1 °C 14 °C 1018.6 hPa North 1.4 km/h 3.2 km/h 60% 0.0 mm 0 W/m2
22:04 21.9 °C 13.8 °C 1018.6 hPa WNW 3.2 km/h 4.8 km/h 60% 0.0 mm 0 W/m2
22:09 21.7 °C 13.8 °C 1019.0 hPa NNE 1.4 km/h 1.6 km/h 61% 0.0 mm 0 W/m2
22:14 21.6 °C 13.8 °C 1018.6 hPa Calm   1.6 km/h 61% 0.0 mm 0 W/m2
22:19 21.4 °C 13.6 °C 1019.0 hPa NNE 1.4 km/h 3.2 km/h 61% 0.0 mm 0 W/m2
22:24 21.3 °C 13.5 °C 1019.0 hPa East 1.4 km/h 3.2 km/h 61% 0.0 mm 0 W/m2
22:29 21.2 °C 13.6 °C 1019.0 hPa NNE 3.2 km/h 3.2 km/h 62% 0.0 mm 0 W/m2
22:34 21 °C 13.4 °C 1019.0 hPa SE 1.4 km/h 1.6 km/h 62% 0.0 mm 0 W/m2
22:39 20.8 °C 13.5 °C 1019.0 hPa ESE 1.4 km/h 1.6 km/h 63% 0.0 mm 0 W/m2
22:44 20.7 °C 13.6 °C 1019.3 hPa Calm     64% 0.0 mm 0 W/m2
22:49 20.4 °C 13.4 °C 1019.0 hPa South 1.4 km/h 3.2 km/h 64% 0.0 mm 0 W/m2
22:54 20.1 °C 13.3 °C 1019.0 hPa South 1.4 km/h 3.2 km/h 65% 0.0 mm 0 W/m2
22:59 19.9 °C 13.1 °C 1019.3 hPa West 1.4 km/h 3.2 km/h 65% 0.0 mm 0 W/m2
23:04 19.7 °C 12.9 °C 1019.3 hPa SE 1.4 km/h 4.8 km/h 65% 0.0 mm 0 W/m2
23:09 19.4 °C 12.9 °C 1019.3 hPa SSW 1.4 km/h 3.2 km/h 66% 0.0 mm 0 W/m2
23:14 19.3 °C 12.8 °C 1019.3 hPa ENE 1.4 km/h 4.8 km/h 66% 0.0 mm 0 W/m2
23:19 19.3 °C 13 °C 1019.3 hPa NE 3.2 km/h 3.2 km/h 67% 0.0 mm 0 W/m2
23:25 19.3 °C 13 °C 1019.3 hPa West 3.2 km/h 3.2 km/h 67% 0.0 mm 0 W/m2
23:30 19.2 °C 12.9 °C 1019.3 hPa Calm   3.2 km/h 67% 0.0 mm 0 W/m2
23:35 19 °C 13 °C 1019.3 hPa West 3.2 km/h 3.2 km/h 68% 0.0 mm 0 W/m2
23:40 18.8 °C 12.8 °C 1019.6 hPa NW 4.7 km/h 4.8 km/h 68% 0.0 mm 0 W/m2
23:45 18.7 °C 12.7 °C 1019.6 hPa SW 1.4 km/h 3.2 km/h 68% 0.0 mm 0 W/m2
23:50 18.6 °C 12.8 °C 1019.6 hPa SW 1.4 km/h 1.6 km/h 69% 0.0 mm 0 W/m2
23:55 18.3 °C 12.7 °C 1019.6 hPa ESE 1.4 km/h 6.4 km/h 70% 0.0 mm 0 W/m2
Juneau County Weather
Compliments of Weather Underground - 2 mb